Time;durP1;ratioP1;P1;durP2;ratioP2;P2;SDS_P1;SDS_P2;PMS_P1;PMS_P2;Temp;Humidity;BMP_temperature;BMP_pressure;BME280_temperature;BME280_humidity;BME280_pressure;Samples;Min_cycle;Max_cycle;Signal;HPM_P1;HPM_P2
2023/07/23 00:00:15;;;;;;;;;;;;;;;15.29;87.04;100838.34;5067808;28;1547;-75
2023/07/23 00:02:41;;;;;;;;;;;;;;;15.29;86.82;100822.66;5072349;28;1361;-81
2023/07/23 00:05:06;;;;;;;;;;;;;;;15.30;86.60;100823.47;5049260;28;1426;-81
2023/07/23 00:07:31;;;;;;;;;;;;;;;15.25;86.19;100826.53;5071591;28;966;-77
2023/07/23 00:09:57;;;;;;;;;;;;;;;15.23;86.57;100823.28;5066711;28;1578;-80
2023/07/23 00:12:22;;;;;;;;;;;;;;;15.23;86.59;100822.47;5068552;28;1422;-80
2023/07/23 00:14:47;;;;;;;;;;;;;;;15.22;86.95;100816.41;5071800;28;1918;-81
2023/07/23 00:17:12;;;;;;;;;;;;;;;15.24;86.86;100811.03;5071086;28;1646;-80
2023/07/23 00:19:37;;;;;;;;;;;;;;;15.22;86.65;100800.75;5047148;28;1368;-81
2023/07/23 00:22:03;;;;;;;;;;;;;;;15.22;86.98;100799.94;5073184;28;1323;-76
2023/07/23 00:24:28;;;;;;;;;;;;;;;15.23;87.12;100801.56;5059223;28;1281;-75
2023/07/23 00:26:53;;;;;;;;;;;;;;;15.23;87.06;100798.94;5074243;28;1143;-75
2023/07/23 00:29:18;;;;;;;;;;;;;;;15.22;87.38;100795.53;5073624;28;1106;-76
2023/07/23 00:31:43;;;;;;;;;;;;;;;15.22;87.24;100785.06;5064013;28;1213;-75
2023/07/23 00:34:09;;;;;;;;;;;;;;;15.25;87.02;100784.75;5062100;28;1897;-75
2023/07/23 00:36:34;;;;;;;;;;;;;;;15.25;87.41;100774.28;5041747;28;1412;-75
2023/07/23 00:38:59;;;;;;;;;;;;;;;15.24;87.14;100777.88;5065616;28;1184;-75
2023/07/23 00:41:24;;;;;;;;;;;;;;;15.24;87.35;100777.88;5054503;28;1104;-75
2023/07/23 00:43:50;;;;;;;;;;;;;;;15.22;87.02;100774.63;5065463;28;1072;-75
2023/07/23 00:46:15;;;;;;;;;;;;;;;15.24;87.30;100767.44;5045921;28;1702;-75
2023/07/23 00:48:40;;;;;;;;;;;;;;;15.20;87.63;100760.91;5063903;28;1111;-75
2023/07/23 00:51:05;;;;;;;;;;;;;;;15.19;87.70;100754.00;5067556;28;1057;-76
2023/07/23 00:53:30;;;;;;;;;;;;;;;15.18;87.16;100757.59;5067043;28;1979;-77
2023/07/23 00:55:56;;;;;;;;;;;;;;;15.17;87.66;100753.38;5061598;28;1052;-76
2023/07/23 00:58:22;;;;;;;;;;;;;;;15.17;88.32;100748.13;5070651;28;1295;-76
2023/07/23 01:00:47;;;;;;;;;;;;;;;15.15;87.88;100742.25;5066272;28;1391;-75
2023/07/23 01:03:12;;;;;;;;;;;;;;;15.12;87.55;100747.78;5071986;28;1101;-75
2023/07/23 01:05:40;;;;;;;;;;;;;;;15.09;88.16;100742.88;5066121;28;1193;-75
2023/07/23 01:08:06;;;;;;;;;;;;;;;15.12;87.88;100732.09;5064116;28;1328;-75
2023/07/23 01:10:33;;;;;;;;;;;;;;;15.15;88.18;100731.81;5069140;28;1456;-75
2023/07/23 01:12:58;;;;;;;;;;;;;;;15.16;88.43;100723.00;5042299;28;1899;-75
2023/07/23 01:15:24;;;;;;;;;;;;;;;15.16;88.25;100716.94;5070008;28;1567;-76
2023/07/23 01:17:50;;;;;;;;;;;;;;;15.15;87.93;100716.13;5062905;28;1480;-75
2023/07/23 01:20:15;;;;;;;;;;;;;;;15.15;87.93;100710.91;5073814;28;1582;-75
2023/07/23 01:22:41;;;;;;;;;;;;;;;15.16;88.34;100704.69;5071802;28;1631;-76
2023/07/23 01:25:06;;;;;;;;;;;;;;;15.17;87.80;100698.50;5072347;28;1541;-76
2023/07/23 01:27:31;;;;;;;;;;;;;;;15.17;87.84;100695.06;5059824;28;1079;-76
2023/07/23 01:29:56;;;;;;;;;;;;;;;15.18;88.09;100689.69;5072043;28;1459;-76
2023/07/23 01:32:22;;;;;;;;;;;;;;;15.17;88.09;100687.22;5063630;28;1353;-75
2023/07/23 01:34:47;;;;;;;;;;;;;;;15.12;88.22;100685.09;5063951;28;1933;-75
2023/07/23 01:37:13;;;;;;;;;;;;;;;15.08;88.25;100683.75;5066758;28;1429;-75
2023/07/23 01:39:39;;;;;;;;;;;;;;;15.07;88.21;100682.13;5062726;28;1705;-76
2023/07/23 01:42:07;;;;;;;;;;;;;;;15.06;88.24;100675.28;5070271;28;1371;-76
2023/07/23 01:44:33;;;;;;;;;;;;;;;15.03;88.23;100670.38;5067592;28;1376;-75
2023/07/23 01:46:58;;;;;;;;;;;;;;;15.03;88.51;100662.53;5051597;28;1435;-76
2023/07/23 01:49:23;;;;;;;;;;;;;;;15.03;88.21;100670.38;5044803;28;1650;-74
2023/07/23 01:51:48;;;;;;;;;;;;;;;15.00;88.34;100660.25;5047425;28;1388;-75
2023/07/23 01:54:13;;;;;;;;;;;;;;;14.98;88.84;100652.56;5045560;28;1882;-75
2023/07/23 01:56:39;;;;;;;;;;;;;;;14.96;88.74;100651.06;5047401;28;1625;-74
2023/07/23 01:59:04;;;;;;;;;;;;;;;14.95;88.51;100641.59;5038723;28;1645;-75
2023/07/23 02:01:29;;;;;;;;;;;;;;;14.94;88.73;100638.19;5043114;28;1272;-74
2023/07/23 02:03:55;;;;;;;;;;;;;;;14.95;88.84;100641.59;5036851;28;1747;-74
2023/07/23 02:06:20;;;;;;;;;;;;;;;14.93;89.27;100633.94;5046737;28;1271;-75
2023/07/23 02:08:45;;;;;;;;;;;;;;;14.93;89.44;100623.50;5046132;28;1302;-75
2023/07/23 02:11:10;;;;;;;;;;;;;;;14.93;88.95;100627.91;5062248;28;1334;-75
2023/07/23 02:13:35;;;;;;;;;;;;;;;14.94;88.94;100616.47;5045784;28;1878;-74
2023/07/23 02:16:01;;;;;;;;;;;;;;;14.92;89.01;100615.81;5045203;28;1287;-75
2023/07/23 02:18:26;;;;;;;;;;;;;;;14.91;89.02;100608.94;5040318;28;1312;-75
2023/07/23 02:20:51;;;;;;;;;;;;;;;14.91;89.14;100603.72;5045115;28;1295;-75
2023/07/23 02:23:16;;;;;;;;;;;;;;;14.91;88.81;100603.72;5048636;28;1384;-74
2023/07/23 02:25:42;;;;;;;;;;;;;;;14.90;89.34;100599.47;5031167;28;1248;-74
2023/07/23 02:28:10;;;;;;;;;;;;;;;14.90;88.86;100592.47;5049726;28;1177;-74
2023/07/23 02:30:35;;;;;;;;;;;;;;;14.87;89.26;100601.44;5016349;28;1142;-75
2023/07/23 02:33:01;;;;;;;;;;;;;;;14.89;89.50;100596.06;5024787;28;1951;-75
2023/07/23 02:35:26;;;;;;;;;;;;;;;14.91;89.16;100590.66;5040242;28;1243;-75
2023/07/23 02:37:51;;;;;;;;;;;;;;;14.92;89.21;100589.72;5040906;28;1418;-75
2023/07/23 02:40:16;;;;;;;;;;;;;;;14.93;89.36;100586.13;5038043;28;1504;-75
2023/07/23 02:42:41;;;;;;;;;;;;;;;14.95;89.04;100574.53;5045782;28;1253;-75
2023/07/23 02:45:07;;;;;;;;;;;;;;;14.98;89.35;100579.44;5060544;28;1268;-75
2023/07/23 02:47:32;;;;;;;;;;;;;;;15.00;89.08;100581.88;5043984;28;1105;-74
2023/07/23 02:49:57;;;;;;;;;;;;;;;14.99;89.35;100569.81;5046851;28;1115;-75
2023/07/23 02:52:23;;;;;;;;;;;;;;;14.99;89.01;100570.63;5023489;28;1135;-74
2023/07/23 02:54:48;;;;;;;;;;;;;;;14.99;88.92;100565.41;5043015;28;1973;-74
2023/07/23 02:57:13;;;;;;;;;;;;;;;14.96;88.58;100557.06;5046360;28;1329;-74
2023/07/23 02:59:39;;;;;;;;;;;;;;;14.94;88.89;100561.63;5048321;28;1122;-75
2023/07/23 03:02:04;;;;;;;;;;;;;;;14.96;89.10;100544.00;5048765;28;1280;-75
2023/07/23 03:04:30;;;;;;;;;;;;;;;14.97;88.89;100556.91;5046382;28;1117;-75
2023/07/23 03:06:55;;;;;;;;;;;;;;;14.94;88.84;100551.19;5048477;28;1384;-75
2023/07/23 03:09:20;;;;;;;;;;;;;;;14.97;88.97;100545.66;5048792;28;1433;-74
2023/07/23 03:11:45;;;;;;;;;;;;;;;14.99;88.75;100548.91;5044920;28;1265;-75
2023/07/23 03:14:11;;;;;;;;;;;;;;;15.00;88.25;100550.53;5056687;28;1906;-74
2023/07/23 03:16:36;;;;;;;;;;;;;;;15.00;88.38;100538.31;5046428;28;1267;-74
2023/07/23 03:19:02;;;;;;;;;;;;;;;15.01;88.59;100541.72;5044349;28;1420;-74
2023/07/23 03:21:27;;;;;;;;;;;;;;;14.99;88.29;100544.50;5040618;28;1355;-74
2023/07/23 03:23:52;;;;;;;;;;;;;;;15.00;88.12;100540.09;5050406;28;1406;-75
2023/07/23 03:26:17;;;;;;;;;;;;;;;15.01;88.22;100536.50;5048247;28;1530;-75
2023/07/23 03:28:42;;;;;;;;;;;;;;;15.01;88.08;100533.88;5027922;28;1337;-75
2023/07/23 03:31:08;;;;;;;;;;;;;;;15.03;88.18;100534.56;5046567;28;1439;-75
2023/07/23 03:33:33;;;;;;;;;;;;;;;15.03;87.86;100534.56;5047378;28;1906;-74
2023/07/23 03:35:58;;;;;;;;;;;;;;;15.03;87.78;100534.56;5045307;28;1380;-74
2023/07/23 03:38:23;;;;;;;;;;;;;;;15.03;87.75;100524.13;5045768;28;1153;-74
2023/07/23 03:40:48;;;;;;;;;;;;;;;15.02;87.63;100523.28;5051618;28;1246;-74
2023/07/23 03:43:14;;;;;;;;;;;;;;;15.05;87.61;100522.16;5046457;28;1336;-74
2023/07/23 03:45:39;;;;;;;;;;;;;;;15.07;87.70;100514.97;5047180;28;1417;-74
2023/07/23 03:48:04;;;;;;;;;;;;;;;15.09;87.77;100513.03;5065756;28;1380;-76
2023/07/23 03:50:30;;;;;;;;;;;;;;;15.09;87.41;100515.63;5061598;28;915;-74
2023/07/23 03:52:55;;;;;;;;;;;;;;;15.10;87.17;100518.06;5065078;28;1957;-75
2023/07/23 03:55:20;;;;;;;;;;;;;;;15.10;86.94;100519.88;5077866;28;1387;-75
2023/07/23 03:57:45;;;;;;;;;;;;;;;15.11;87.31;100516.28;5064673;28;1400;-75
2023/07/23 04:00:11;;;;;;;;;;;;;;;15.12;87.13;100507.47;5071055;28;1321;-74
2023/07/23 04:02:36;;;;;;;;;;;;;;;15.13;86.67;100509.09;5047167;28;1359;-75
2023/07/23 04:05:02;;;;;;;;;;;;;;;15.15;86.73;100512.38;5068452;28;1304;-74
2023/07/23 04:07:27;;;;;;;;;;;;;;;15.12;86.66;100503.03;5063688;28;1483;-75
2023/07/23 04:09:53;;;;;;;;;;;;;;;15.17;86.40;100518.25;5064787;28;2394;-75
2023/07/23 04:12:18;;;;;;;;;;;;;;;15.21;86.23;100519.56;5059908;28;1344;-76
2023/07/23 04:14:43;;;;;;;;;;;;;;;15.22;86.40;100513.34;5067207;28;1953;-75
2023/07/23 04:17:11;;;;;;;;;;;;;;;15.24;86.26;100516.59;5067504;28;1228;-74
2023/07/23 04:19:37;;;;;;;;;;;;;;;15.27;85.69;100511.06;5049728;28;1344;-75
2023/07/23 04:22:03;;;;;;;;;;;;;;;15.28;85.87;100512.69;5061527;28;1347;-74
2023/07/23 04:24:28;;;;;;;;;;;;;;;15.31;85.34;100517.59;5069041;28;1268;-75
2023/07/23 04:26:53;;;;;;;;;;;;;;;15.33;85.60;100520.88;5058904;28;1133;-74
2023/07/23 04:29:19;;;;;;;;;;;;;;;15.34;85.76;100517.25;5057642;28;1328;-77
2023/07/23 04:31:44;;;;;;;;;;;;;;;15.36;85.07;100527.53;5063015;28;997;-75
2023/07/23 04:34:09;;;;;;;;;;;;;;;15.37;85.37;100519.56;5061833;28;1902;-75
2023/07/23 04:36:34;;;;;;;;;;;;;;;15.39;84.83;100527.22;5064990;28;1009;-75
2023/07/23 04:39:00;;;;;;;;;;;;;;;15.40;84.70;100521.84;5061240;28;1442;-75
2023/07/23 04:41:25;;;;;;;;;;;;;;;15.42;84.96;100524.28;5061383;28;1337;-74
2023/07/23 04:43:50;;;;;;;;;;;;;;;15.43;84.40;100535.56;5064833;28;1167;-75
2023/07/23 04:46:16;;;;;;;;;;;;;;;15.46;84.49;100524.78;5065933;28;1375;-75
2023/07/23 04:48:41;;;;;;;;;;;;;;;15.47;84.43;100529.03;5070892;28;1097;-75
2023/07/23 04:51:08;;;;;;;;;;;;;;;15.48;84.62;100522.81;5067160;28;1373;-75
2023/07/23 04:53:33;;;;;;;;;;;;;;;15.49;84.00;100524.47;5065513;28;1901;-75
2023/07/23 04:56:02;;;;;;;;;;;;;;;15.51;84.19;100530.34;5061864;28;1196;-74
2023/07/23 04:58:27;;;;;;;;;;;;;;;15.51;83.75;100527.72;5061037;28;2072;-75
2023/07/23 05:00:53;;;;;;;;;;;;;;;15.52;83.86;100513.66;5070802;28;1670;-74
2023/07/23 05:03:18;;;;;;;;;;;;;;;15.54;84.28;100519.53;5066557;28;1382;-74
2023/07/23 05:05:50;;;;;;;;;;;;;;;15.54;83.90;100522.16;5060876;28;1029;-75
2023/07/23 05:08:16;;;;;;;;;;;;;;;15.54;84.07;100514.31;5064860;28;1237;-74
2023/07/23 05:10:41;;;;;;;;;;;;;;;15.54;83.41;100511.69;5072204;28;1298;-75
2023/07/23 05:13:06;;;;;;;;;;;;;;;15.55;83.26;100518.56;5063601;28;1897;-75
2023/07/23 05:15:31;;;;;;;;;;;;;;;15.55;83.34;100516.78;5070065;28;1342;-74
2023/07/23 05:17:57;;;;;;;;;;;;;;;15.56;83.60;100514.97;5072617;28;1084;-75
2023/07/23 05:20:22;;;;;;;;;;;;;;;15.56;83.27;100521.00;5046439;28;1236;-75
2023/07/23 05:22:47;;;;;;;;;;;;;;;15.56;83.37;100521.00;5067286;28;1519;-74
2023/07/23 05:25:12;;;;;;;;;;;;;;;15.56;83.73;100510.56;5066787;28;1777;-75
2023/07/23 05:27:38;;;;;;;;;;;;;;;15.56;83.70;100517.59;5066981;28;1268;-75
2023/07/23 05:30:04;;;;;;;;;;;;;;;15.55;84.00;100518.56;5071980;28;1337;-75
2023/07/23 05:32:30;;;;;;;;;;;;;;;15.53;84.14;100515.28;5071370;28;1388;-74
2023/07/23 05:34:55;;;;;;;;;;;;;;;15.52;84.17;100524.13;5072003;28;1897;-74
2023/07/23 05:37:20;;;;;;;;;;;;;;;15.50;83.93;100510.41;5065224;28;1204;-75
2023/07/23 05:39:46;;;;;;;;;;;;;;;15.48;84.17;100512.34;5049080;28;1249;-75
2023/07/23 05:42:12;;;;;;;;;;;;;;;15.48;84.42;100522.81;5070550;28;1231;-75
2023/07/23 05:44:37;;;;;;;;;;;;;;;15.47;84.01;100521.19;5068605;28;1237;-74
2023/07/23 05:47:02;;;;;;;;;;;;;;;15.45;84.26;100523.16;5073513;28;1355;-74
2023/07/23 05:49:28;;;;;;;;;;;;;;;15.44;84.58;100524.13;5067280;28;1339;-74
2023/07/23 05:51:53;;;;;;;;;;;;;;;15.43;84.63;100518.09;5082795;28;1516;-74
2023/07/23 05:54:18;;;;;;;;;;;;;;;15.44;84.68;100521.53;5067787;28;1926;-74
2023/07/23 05:56:43;;;;;;;;;;;;;;;15.41;84.61;100513.00;5068470;28;1267;-74
2023/07/23 05:59:09;;;;;;;;;;;;;;;15.40;84.24;100516.59;5068026;28;1613;-74
2023/07/23 06:01:34;;;;;;;;;;;;;;;15.40;84.72;100516.59;5062417;28;1461;-74
2023/07/23 06:03:59;;;;;;;;;;;;;;;15.41;85.22;100513.00;5077586;28;1303;-75
2023/07/23 06:06:25;;;;;;;;;;;;;;;15.41;84.45;100507.78;5074972;28;1229;-74
2023/07/23 06:08:50;;;;;;;;;;;;;;;15.40;84.83;100507.94;5070088;28;1205;-73
2023/07/23 06:11:15;;;;;;;;;;;;;;;15.42;85.08;100498.13;5066621;28;1687;-74
2023/07/23 06:13:40;;;;;;;;;;;;;;;15.45;84.63;100507.47;5076027;28;1894;-75
2023/07/23 06:16:06;;;;;;;;;;;;;;;15.43;84.55;100499.78;5074050;28;1291;-76
2023/07/23 06:18:35;;;;;;;;;;;;;;;15.46;84.50;100501.25;5070353;28;1495;-75
2023/07/23 06:21:00;;;;;;;;;;;;;;;15.47;84.85;100508.09;5074807;28;1589;-75
2023/07/23 06:23:25;;;;;;;;;;;;;;;15.48;84.77;100507.13;5074300;28;1763;-76
2023/07/23 06:25:54;;;;;;;;;;;;;;;15.49;84.46;100508.78;5070443;28;1100;-77
2023/07/23 06:28:20;;;;;;;;;;;;;;;15.51;84.85;100517.25;5057006;28;1329;-79
2023/07/23 06:30:45;;;;;;;;;;;;;;;15.52;84.95;100513.66;5051154;28;1326;-78
2023/07/23 06:33:10;;;;;;;;;;;;;;;15.51;84.91;100517.25;5051780;28;1973;-79
2023/07/23 06:35:37;;;;;;;;;;;;;;;15.51;84.94;100522.50;5071503;28;1074;-80
2023/07/23 06:38:02;;;;;;;;;;;;;;;15.50;85.18;100526.09;5073732;28;1089;-79
2023/07/23 06:40:27;;;;;;;;;;;;;;;15.49;85.08;100521.84;5066674;28;1284;-80
2023/07/23 06:42:53;;;;;;;;;;;;;;;15.49;85.19;100529.69;5070404;28;1204;-80
2023/07/23 06:45:18;;;;;;;;;;;;;;;15.47;85.02;100531.63;5054341;28;1255;-80
2023/07/23 06:47:43;;;;;;;;;;;;;;;15.48;85.31;100535.88;5053475;28;1292;-75
2023/07/23 06:50:08;;;;;;;;;;;;;;;15.46;85.24;100538.66;5050572;28;1117;-75
2023/07/23 06:52:34;;;;;;;;;;;;;;;15.45;85.98;100533.59;5051697;28;1102;-75
2023/07/23 06:54:59;;;;;;;;;;;;;;;15.41;85.72;100546.97;5045204;28;1906;-74
2023/07/23 06:57:24;;;;;;;;;;;;;;;15.40;86.57;100545.34;5033689;28;1026;-75
2023/07/23 06:59:50;;;;;;;;;;;;;;;15.39;86.04;100551.56;5051622;28;1082;-75
2023/07/23 07:02:15;;;;;;;;;;;;;;;15.37;86.75;100544.88;5054614;28;1335;-75
2023/07/23 07:04:40;;;;;;;;;;;;;;;15.34;86.47;100543.41;5050751;28;1542;-75
2023/07/23 07:07:05;;;;;;;;;;;;;;;15.30;87.22;100549.91;5057568;28;1196;-75
2023/07/23 07:09:31;;;;;;;;;;;;;;;15.24;86.99;100547.94;5053332;28;1188;-75
2023/07/23 07:11:56;;;;;;;;;;;;;;;15.20;87.08;100541.44;5044932;28;2199;-75
2023/07/23 07:14:31;;;;;;;;;;;;;;;15.16;87.76;100540.13;5043389;28;1894;-75
2023/07/23 07:16:56;;;;;;;;;;;;;;;15.13;87.90;100550.88;5053432;28;936;-75
2023/07/23 07:19:22;;;;;;;;;;;;;;;15.13;88.88;100550.88;5066921;23;1994;-79
2023/07/23 07:21:47;;;;;;;;;;;;;;;15.14;89.05;100552.53;5039704;28;1226;-79
2023/07/23 07:24:12;;;;;;;;;;;;;;;15.13;89.20;100535.22;5024125;28;1235;-78
2023/07/23 07:26:37;;;;;;;;;;;;;;;15.11;89.39;100526.72;5044251;28;1253;-79
2023/07/23 07:29:02;;;;;;;;;;;;;;;15.07;89.65;100528.03;5026568;28;1312;-79
2023/07/23 07:31:28;;;;;;;;;;;;;;;15.06;89.55;100539.44;5028554;28;1279;-79
2023/07/23 07:33:53;;;;;;;;;;;;;;;15.04;89.39;100536.19;5025911;28;1975;-79
2023/07/23 07:36:19;;;;;;;;;;;;;;;15.05;90.93;100537.81;5023626;28;1244;-79
2023/07/23 07:38:44;;;;;;;;;;;;;;;15.05;90.38;100538.63;5037619;28;1217;-78
2023/07/23 07:41:09;;;;;;;;;;;;;;;15.05;90.82;100528.19;5015067;28;1261;-79
2023/07/23 07:43:34;;;;;;;;;;;;;;;15.04;89.82;100536.19;5025512;28;1099;-81
2023/07/23 07:46:00;;;;;;;;;;;;;;;15.01;90.79;100536.50;5025404;28;1390;-80
2023/07/23 07:48:26;;;;;;;;;;;;;;;14.98;90.87;100542.06;5029105;28;1766;-81
2023/07/23 07:51:04;;;;;;;;;;;;;;;14.97;90.96;100545.66;5008452;28;1366;-82
2023/07/23 07:53:30;;;;;;;;;;;;;;;14.96;91.13;100538.78;5033423;28;1878;-80
2023/07/23 07:55:56;;;;;;;;;;;;;;;14.97;92.08;100535.22;5023485;28;1325;-81
2023/07/23 07:58:24;;;;;;;;;;;;;;;14.94;90.90;100540.75;5006994;28;1358;-81
2023/07/23 08:00:51;;;;;;;;;;;;;;;14.91;91.52;100535.81;5009426;28;1348;-80
2023/07/23 08:03:16;;;;;;;;;;;;;;;14.90;92.18;100540.22;5006913;28;1303;-80
2023/07/23 08:05:41;;;;;;;;;;;;;;;14.92;91.86;100540.09;5018155;28;1232;-80
2023/07/23 08:08:07;;;;;;;;;;;;;;;14.97;92.67;100537.81;5031679;28;1271;-81
2023/07/23 08:10:34;;;;;;;;;;;;;;;14.99;92.62;100538.47;5029549;28;1326;-80
2023/07/23 08:13:01;;;;;;;;;;;;;;;14.98;92.75;100531.63;5034156;28;1890;-81
2023/07/23 08:15:26;;;;;;;;;;;;;;;15.00;92.32;100535.69;5009311;28;1340;-81
2023/07/23 08:17:51;;;;;;;;;;;;;;;15.01;92.75;100537.31;5032908;28;1286;-81
2023/07/23 08:20:17;;;;;;;;;;;;;;;14.99;93.08;100533.25;5030807;28;1275;-80
2023/07/23 08:22:42;;;;;;;;;;;;;;;14.98;92.99;100542.06;5015862;28;1358;-80
2023/07/23 08:25:08;;;;;;;;;;;;;;;15.00;93.14;100534.88;5025633;28;1196;-79
2023/07/23 08:27:35;;;;;;;;;;;;;;;15.02;93.62;100532.91;5043700;28;1296;-81
2023/07/23 08:30:00;;;;;;;;;;;;;;;15.03;93.66;100539.78;5026775;28;1216;-80
2023/07/23 08:32:26;;;;;;;;;;;;;;;15.06;94.35;100529.00;5031904;23;2102;-87
2023/07/23 08:34:51;;;;;;;;;;;;;;;15.08;93.96;100530.50;5030511;28;1993;-86
2023/07/23 08:37:17;;;;;;;;;;;;;;;15.10;94.66;100530.31;5033362;28;1213;-87
2023/07/23 08:39:42;;;;;;;;;;;;;;;15.12;93.99;100528.34;5032336;28;1328;-84
2023/07/23 08:42:34;;;;;;;;;;;;;;;15.15;93.73;100522.81;5037670;28;1360;-85
2023/07/23 08:45:19;;;;;;;;;;;;;;;15.19;94.38;100520.69;5036693;28;1685;-87
2023/07/23 08:47:45;;;;;;;;;;;;;;;15.23;94.33;100528.03;5046798;28;1179;-86
2023/07/23 08:50:13;;;;;;;;;;;;;;;15.27;93.96;100531.97;5051326;28;1382;-84
2023/07/23 08:52:39;;;;;;;;;;;;;;;15.31;93.98;100522.84;5054997;28;1685;-86
2023/07/23 08:55:07;;;;;;;;;;;;;;;15.34;94.40;100532.94;5052611;28;1945;-85
2023/07/23 08:57:33;;;;;;;;;;;;;;;15.37;94.74;100527.41;5050066;28;1327;-85
2023/07/23 08:59:58;;;;;;;;;;;;;;;15.39;94.51;100535.88;5053419;28;1308;-85
2023/07/23 09:02:24;;;;;;;;;;;;;;;15.45;93.60;100538.84;5057123;28;1392;-86
2023/07/23 09:04:51;;;;;;;;;;;;;;;15.49;94.58;100529.69;5055856;28;1257;-85
2023/07/23 09:07:17;;;;;;;;;;;;;;;15.52;93.81;100524.13;5036385;28;2398;-86
2023/07/23 09:09:42;;;;;;;;;;;;;;;15.57;94.27;100527.06;5032310;28;1304;-87
2023/07/23 09:12:07;;;;;;;;;;;;;;;15.57;94.13;100533.09;5033914;28;1186;-85
2023/07/23 09:14:40;;;;;;;;;;;;;;;15.60;95.01;100531.97;5058306;28;1960;-85
2023/07/23 09:17:14;;;;;;;;;;;;;;;15.61;95.02;100530.97;5034139;28;1281;-86
2023/07/23 09:19:40;;;;;;;;;;;;;;;15.62;94.46;100535.22;5034092;28;1124;-85
2023/07/23 09:22:08;;;;;;;;;;;;;;;15.63;94.27;100532.47;5052858;28;1319;-86
2023/07/23 09:24:33;;;;;;;;;;;;;;;15.65;93.88;100535.75;5048478;28;1288;-87
2023/07/23 09:26:59;;;;;;;;;;;;;;;15.67;94.38;100540.81;5051720;28;1122;-85
2023/07/23 09:29:33;;;;;;;;;;;;;;;15.70;95.31;100532.63;5054892;28;1329;-84
2023/07/23 09:31:58;;;;;;;;;;;;;;;15.73;94.52;100537.53;5032455;28;1206;-85
2023/07/23 09:34:24;;;;;;;;;;;;;;;15.73;94.47;100521.84;5047078;28;1890;-86
2023/07/23 09:36:51;;;;;;;;;;;;;;;15.78;94.08;100535.25;5030409;28;1194;-85
2023/07/23 09:39:16;;;;;;;;;;;;;;;15.77;94.28;100538.84;5055663;28;1401;-84
2023/07/23 09:41:42;;;;;;;;;;;;;;;15.80;94.28;100532.44;5052118;28;1299;-84
2023/07/23 09:44:10;;;;;;;;;;;;;;;15.83;94.27;100532.94;5048924;28;1332;-85
2023/07/23 09:46:36;;;;;;;;;;;;;;;15.87;93.87;100528.19;5045392;28;1267;-85
2023/07/23 09:49:04;;;;;;;;;;;;;;;15.98;94.22;100534.88;5034046;28;1219;-85
2023/07/23 09:51:33;;;;;;;;;;;;;;;15.96;94.62;100536.84;5049009;28;1013;-87
2023/07/23 09:54:02;;;;;;;;;;;;;;;16.00;95.25;100538.13;5050633;28;1961;-87
2023/07/23 09:56:28;;;;;;;;;;;;;;;16.00;95.47;100538.97;5050604;28;1358;-86
2023/07/23 09:58:53;;;;;;;;;;;;;;;16.03;95.43;100537.78;5055017;28;1264;-86
2023/07/23 10:01:19;;;;;;;;;;;;;;;16.06;96.41;100542.72;5054578;28;1101;-85
2023/07/23 10:03:45;;;;;;;;;;;;;;;16.04;96.42;100542.03;5031957;28;1336;-86
2023/07/23 10:06:15;;;;;;;;;;;;;;;16.03;96.43;100543.84;5055819;28;1293;-85
2023/07/23 10:08:43;;;;;;;;;;;;;;;16.01;96.81;100537.16;5050941;28;1402;-86
2023/07/23 10:11:11;;;;;;;;;;;;;;;15.99;96.35;100539.91;5054161;28;1280;-87
2023/07/23 10:13:37;;;;;;;;;;;;;;;15.98;96.59;100550.56;5055024;28;1956;-86
2023/07/23 10:16:04;;;;;;;;;;;;;;;15.91;97.84;100540.75;5054643;28;1165;-87
2023/07/23 10:18:30;;;;;;;;;;;;;;;15.86;96.59;100553.53;5057360;28;1153;-86
2023/07/23 10:20:55;;;;;;;;;;;;;;;15.84;97.10;100545.03;5045569;28;1404;-85
2023/07/23 10:23:21;;;;;;;;;;;;;;;15.81;97.51;100555.81;5053849;28;1544;-86
2023/07/23 10:25:47;;;;;;;;;;;;;;;15.78;97.39;100561.38;5044856;28;1050;-85
2023/07/23 10:28:22;;;;;;;;;;;;;;;15.77;97.36;100554.53;5027784;28;1278;-85
2023/07/23 10:30:47;;;;;;;;;;;;;;;15.76;97.50;100544.22;5052486;28;1095;-86
2023/07/23 10:33:13;;;;;;;;;;;;;;;15.80;98.55;100538.50;5034192;28;2309;-86
2023/07/23 10:35:54;;;;;;;;;;;;;;;15.76;98.41;100558.09;5060593;28;1243;-86
2023/07/23 10:38:23;;;;;;;;;;;;;;;15.78;99.43;100563.19;5046658;28;1227;-85
2023/07/23 10:40:49;;;;;;;;;;;;;;;15.80;99.22;100554.19;5054714;28;1382;-86
2023/07/23 10:43:36;;;;;;;;;;;;;;;15.80;98.88;100554.19;5046516;28;1264;-85
2023/07/23 10:46:09;;;;;;;;;;;;;;;15.82;98.94;100552.22;5032481;28;1479;-85
2023/07/23 10:48:48;;;;;;;;;;;;;;;15.83;99.09;100558.28;5050608;28;1059;-85
2023/07/23 10:51:33;;;;;;;;;;;;;;;15.81;98.77;100561.03;5033342;28;1361;-85
2023/07/23 10:54:02;;;;;;;;;;;;;;;15.85;99.97;100566.78;5023389;28;1895;-86
2023/07/23 10:56:28;;;;;;;;;;;;;;;15.86;98.92;100558.75;5045940;28;1172;-86
2023/07/23 10:58:54;;;;;;;;;;;;;;;15.84;98.98;100555.50;5027455;28;1140;-86
2023/07/23 11:01:20;;;;;;;;;;;;;;;15.87;99.85;100551.72;5049662;28;1327;-85
2023/07/23 11:03:46;;;;;;;;;;;;;;;15.88;99.53;100550.72;5055580;28;1276;-86
2023/07/23 11:06:31;;;;;;;;;;;;;;;15.90;99.39;100554.03;5045180;28;1236;-85
2023/07/23 11:08:58;;;;;;;;;;;;;;;15.96;100.00;100557.78;5053611;28;1265;-86
2023/07/23 11:11:36;;;;;;;;;;;;;;;16.01;100.00;100555.47;5055517;28;1240;-85
2023/07/23 11:14:22;;;;;;;;;;;;;;;16.05;99.56;100556.75;5046791;28;1898;-86
2023/07/23 11:17:09;;;;;;;;;;;;;;;16.11;99.83;100558.69;5049540;28;1473;-86
2023/07/23 11:19:34;;;;;;;;;;;;;;;16.18;99.73;100554.44;5050277;28;1639;-85
2023/07/23 11:22:00;;;;;;;;;;;;;;;16.25;100.00;100551.97;5049788;28;1280;-86
2023/07/23 11:24:27;;;;;;;;;;;;;;;16.33;100.00;100562.41;5048737;28;1367;-86
2023/07/23 11:30:02;;;;;;;;;;;;;;;16.63;100.00;100550.31;5005751;28;1258;-85
2023/07/23 11:32:27;;;;;;;;;;;;;;;16.74;99.81;100552.59;5029202;28;2348;-85
2023/07/23 11:35:11;;;;;;;;;;;;;;;16.87;100.00;100557.28;5011597;28;1969;-86
2023/07/23 11:37:49;;;;;;;;;;;;;;;16.97;99.66;100553.47;5024470;28;1490;-91
2023/07/23 11:41:00;;;;;;;;;;;;;;;;;;;;;
2023/07/23 11:43:26;;;;;;;;;;;;;;;17.20;98.85;100555.25;4993384;28;1266;-86
2023/07/23 11:45:52;;;;;;;;;;;;;;;17.30;98.62;100542.72;5021578;28;1182;-86
2023/07/23 11:48:18;;;;;;;;;;;;;;;17.40;98.48;100547.75;5018018;28;1247;-86
2023/07/23 11:50:58;;;;;;;;;;;;;;;17.52;98.65;100536.66;5018677;28;1159;-84
2023/07/23 11:56:26;;;;;;;;;;;;;;;17.69;97.46;100536.50;5029879;28;1318;-86
2023/07/23 11:58:51;;;;;;;;;;;;;;;17.70;97.08;100538.13;5033143;28;1214;-86
2023/07/23 12:01:17;;;;;;;;;;;;;;;17.69;96.84;100541.75;5008932;28;1317;-86
2023/07/23 12:03:43;;;;;;;;;;;;;;;17.72;96.88;100541.41;5031014;28;1499;-85
2023/07/23 12:06:11;;;;;;;;;;;;;;;17.76;96.53;100538.25;5019704;28;2369;-86
2023/07/23 12:08:39;;;;;;;;;;;;;;;17.81;96.89;100529.84;5031490;28;1102;-84
2023/07/23 12:11:11;;;;;;;;;;;;;;;17.88;96.04;100527.31;5024264;28;1503;-86
2023/07/23 12:13:49;;;;;;;;;;;;;;;17.93;95.98;100524.97;5028560;28;1894;-85
2023/07/23 12:16:33;;;;;;;;;;;;;;;18.01;96.13;100520.47;5015848;28;1343;-85
2023/07/23 12:18:59;;;;;;;;;;;;;;;18.12;95.64;100523.63;5033485;28;1297;-84
2023/07/23 12:21:27;;;;;;;;;;;;;;;18.18;94.98;100520.25;5011557;28;1270;-87
2023/07/23 12:23:58;;;;;;;;;;;;;;;18.20;94.71;100513.84;5030651;28;1030;-85
2023/07/23 12:26:46;;;;;;;;;;;;;;;18.17;94.19;100529.13;5032616;28;1040;-85
2023/07/23 12:29:18;;;;;;;;;;;;;;;18.16;94.39;100525.69;5024048;28;1389;-85
2023/07/23 12:32:08;;;;;;;;;;;;;;;18.20;93.98;100528.78;5003123;28;1018;-86
2023/07/23 12:35:05;;;;;;;;;;;;;;;18.24;94.23;100530.06;5017976;28;1995;-84
2023/07/23 12:37:36;;;;;;;;;;;;;;;18.28;93.97;100526.06;5030087;28;1165;-85
2023/07/23 12:40:12;;;;;;;;;;;;;;;18.33;93.59;100517.63;5030264;28;1162;-85
2023/07/23 12:42:43;;;;;;;;;;;;;;;18.45;93.69;100516.16;5029703;28;1433;-85
2023/07/23 12:45:11;;;;;;;;;;;;;;;18.55;93.42;100512.25;5028834;28;1432;-84
2023/07/23 12:47:44;;;;;;;;;;;;;;;18.71;93.12;100510.44;5017027;28;1233;-87
2023/07/23 12:50:09;;;;;;;;;;;;;;;18.76;92.45;100518.59;5034452;28;1068;-85
2023/07/23 12:52:35;;;;;;;;;;;;;;;18.85;92.16;100527.97;5033428;28;1157;-84